Time;durP1;ratioP1;P1;durP2;ratioP2;P2;SDS_P1;SDS_P2;PMS_P1;PMS_P2;Temp;Humidity;BMP_temperature;BMP_pressure;BME280_temperature;BME280_humidity;BME280_pressure;Samples;Min_cycle;Max_cycle;Signal;HPM_P1;HPM_P2
2023/01/24 05:54:22;;;;;;;;;48.25;41.00;;;;;2.41;100.00;103353.25;5833436;22;49227;-63
2023/01/24 05:56:47;;;;;;;;;43.00;38.00;;;;;2.17;100.00;103307.78;5008169;28;51931;-64
2023/01/24 05:59:13;;;;;;;;;42.50;35.00;;;;;2.30;100.00;103325.41;5004867;28;50893;-63
2023/01/24 06:01:39;;;;;;;;;55.75;45.00;;;;;2.43;100.00;103361.22;5009438;28;50005;-63
2023/01/24 06:04:04;;;;;;;;;47.50;44.25;;;;;1.90;100.00;103245.56;5005658;28;49738;-65
2023/01/24 06:06:30;;;;;;;;;56.00;45.00;;;;;1.63;100.00;103205.91;5017909;28;49367;-71
2023/01/24 06:08:55;;;;;;;;;65.25;50.25;;;;;2.23;100.00;103290.25;5025033;28;50458;-71
2023/01/24 06:11:24;;;;;;;;;49.25;43.50;;;;;2.39;100.00;103320.19;5024831;28;49278;-64
2023/01/24 06:13:49;;;;;;;;;46.00;35.50;;;;;2.42;100.00;103325.69;5011594;28;49892;-63
2023/01/24 06:16:18;;;;;;;;;49.25;38.25;;;;;2.38;100.00;103316.69;4995066;28;49664;-60
2023/01/24 06:18:47;;;;;;;;;52.00;42.00;;;;;2.54;100.00;103353.66;4998279;28;50928;-61
2023/01/24 06:21:35;;;;;;;;;42.50;35.25;;;;;2.56;100.00;103349.53;4984703;28;49588;-68
2023/01/24 06:24:01;;;;;;;;;61.00;42.75;;;;;2.35;100.00;103316.41;4977814;28;49915;-64
2023/01/24 06:26:27;;;;;;;;;63.50;50.25;;;;;2.14;100.00;103280.69;4997913;28;49647;-68
2023/01/24 06:28:53;;;;;;;;;42.25;30.25;;;;;2.59;100.00;103367.97;5003856;28;49986;-64
2023/01/24 06:31:35;;;;;;;;;44.25;35.25;;;;;1.82;100.00;103206.00;4988018;28;50018;-65
2023/01/24 06:34:26;;;;;;;;;51.00;41.75;;;;;2.58;100.00;103341.91;5007699;28;49598;-64
2023/01/24 06:37:04;;;;;;;;;55.25;44.50;;;;;2.62;100.00;103363.88;5010819;28;50093;-66
2023/01/24 06:39:30;;;;;;;;;39.50;35.75;;;;;2.06;100.00;103264.41;5010138;28;50939;-64
2023/01/24 06:41:56;;;;;;;;;50.25;42.75;;;;;1.13;100.00;103133.78;4995520;28;49864;-66
2023/01/24 06:44:22;;;;;;;;;47.25;37.00;;;;;1.77;100.00;103238.31;4991617;28;49981;-64
2023/01/24 06:46:47;;;;;;;;;36.50;30.75;;;;;2.40;100.00;103348.84;4991268;28;49854;-63
2023/01/24 06:49:12;;;;;;;;;38.75;34.25;;;;;1.98;100.00;103280.91;4991370;28;50808;-75
2023/01/24 06:51:38;;;;;;;;;56.75;43.50;;;;;2.34;100.00;103365.53;4991461;28;50240;-71
2023/01/24 06:54:03;;;;;;;;;50.75;43.25;;;;;2.13;100.00;103281.47;5003719;28;50520;-65
2023/01/24 06:56:28;;;;;;;;;27.50;24.50;;;;;2.44;100.00;103332.84;5007003;28;49876;-62
2023/01/24 06:58:54;;;;;;;;;59.50;42.25;;;;;2.18;100.00;103296.66;5007793;28;50874;-65
2023/01/24 07:01:19;;;;;;;;;49.75;42.25;;;;;2.14;100.00;103267.75;4995389;28;49779;-64
2023/01/24 07:03:45;;;;;;;;;53.50;45.25;;;;;2.58;100.00;103336.72;4990970;28;50014;-64
2023/01/24 07:06:10;;;;;;;;;63.75;47.50;;;;;2.39;100.00;103302.94;4995593;28;49854;-63
2023/01/24 07:08:35;;;;;;;;;63.50;48.50;;;;;2.76;100.00;103390.31;5000467;28;60109;-64
2023/01/24 07:11:01;;;;;;;;;67.00;47.50;;;;;2.82;100.00;103369.22;5009796;28;49781;-69
2023/01/24 07:13:26;;;;;;;;;65.50;51.50;;;;;2.69;100.00;103348.09;5004896;28;50191;-68
2023/01/24 07:15:51;;;;;;;;;43.50;32.75;;;;;2.29;100.00;103288.22;5010041;28;49976;-65
2023/01/24 07:18:18;;;;;;;;;63.75;46.75;;;;;2.62;100.00;103362.19;5009348;28;64581;-71
2023/01/24 07:20:44;;;;;;;;;52.00;43.75;;;;;2.54;100.00;103363.13;5009774;28;49631;-71
2023/01/24 07:23:27;;;;;;;;;59.25;46.50;;;;;2.39;100.00;103330.56;5009859;28;49649;-70
2023/01/24 07:25:54;;;;;;;;;62.00;48.25;;;;;2.67;100.00;103383.34;5004563;28;49948;-70
2023/01/24 07:28:20;;;;;;;;;57.00;46.75;;;;;2.56;100.00;103364.19;5008317;28;50959;-70
2023/01/24 07:30:46;;;;;;;;;64.50;49.50;;;;;2.42;100.00;103342.16;5004550;28;49895;-70
2023/01/24 07:33:13;;;;;;;;;37.75;28.00;;;;;2.38;100.00;103340.00;5009782;28;49692;-71
2023/01/24 07:35:39;;;;;;;;;57.50;47.25;;;;;2.41;100.00;103362.72;5009813;28;49776;-68
2023/01/24 07:38:05;;;;;;;;;42.00;32.25;;;;;2.39;100.00;103370.34;5010165;28;49877;-70
2023/01/24 07:40:30;;;;;;;;;46.25;39.75;;;;;2.20;100.00;103331.41;5012826;28;49680;-70
2023/01/24 07:42:59;;;;;;;;;50.25;44.00;;;;;2.22;100.00;103329.91;4995807;28;49865;-71
2023/01/24 07:45:24;;;;;;;;;61.00;48.25;;;;;2.38;100.00;103341.69;5008479;28;50071;-70
2023/01/24 07:47:57;;;;;;;;;54.25;46.50;;;;;2.57;100.00;103374.69;5012890;28;50212;-71
2023/01/24 07:50:23;;;;;;;;;63.00;46.50;;;;;2.65;100.00;103388.41;5006427;28;49746;-70
2023/01/24 07:52:55;;;;;;;;;53.00;44.50;;;;;2.40;100.00;103341.06;5010333;28;49618;-70
2023/01/24 07:55:22;;;;;;;;;45.25;43.25;;;;;2.78;100.00;103408.59;5012822;28;50021;-70
2023/01/24 07:57:48;;;;;;;;;65.25;45.75;;;;;2.54;100.00;103366.63;5012450;28;49940;-70
2023/01/24 08:00:14;;;;;;;;;56.25;45.00;;;;;2.46;100.00;103343.34;5007991;28;49873;-70
2023/01/24 08:02:40;;;;;;;;;58.50;46.75;;;;;2.44;100.00;103356.16;5010836;28;49894;-70
2023/01/24 08:05:06;;;;;;;;;56.75;42.50;;;;;1.90;100.00;103293.13;5013305;28;49938;-72
2023/01/24 08:07:31;;;;;;;;;50.25;35.50;;;;;2.60;100.00;103379.25;5006415;28;49958;-71
2023/01/24 08:09:57;;;;;;;;;53.50;42.25;;;;;2.55;100.00;103371.06;5011813;28;57168;-70
2023/01/24 08:12:22;;;;;;;;;49.00;44.50;;;;;2.58;100.00;103383.38;5009254;28;50043;-70
2023/01/24 08:14:48;;;;;;;;;49.75;44.00;;;;;2.80;100.00;103420.97;5009349;28;49804;-71
2023/01/24 08:17:13;;;;;;;;;60.00;47.50;;;;;2.73;100.00;103409.88;5012728;28;50947;-73
2023/01/24 08:19:42;;;;;;;;;52.00;42.25;;;;;2.58;100.00;103381.72;5012526;28;49812;-70
2023/01/24 08:22:07;;;;;;;;;46.25;41.25;;;;;2.33;100.00;103332.59;4994663;28;50215;-71
2023/01/24 08:24:33;;;;;;;;;52.25;40.75;;;;;2.84;100.00;103474.06;4994481;28;49981;-70
2023/01/24 08:27:00;;;;;;;;;43.50;36.50;;;;;2.36;100.00;103372.66;5007426;28;50931;-71
2023/01/24 08:29:26;;;;;;;;;50.00;39.75;;;;;1.53;100.00;103233.38;5012459;28;49748;-70
2023/01/24 08:31:51;;;;;;;;;62.75;43.50;;;;;1.25;100.00;103167.69;4994128;28;49824;-71
2023/01/24 08:34:17;;;;;;;;;45.00;42.50;;;;;2.90;100.00;103450.38;5012643;28;49750;-71
2023/01/24 08:36:42;;;;;;;;;55.50;46.00;;;;;1.97;100.00;103325.72;5012194;28;49729;-71
2023/01/24 08:39:07;;;;;;;;;51.00;44.50;;;;;2.68;100.00;103401.63;5011787;28;49838;-72
2023/01/24 08:41:33;;;;;;;;;51.25;43.50;;;;;2.80;100.00;103420.06;5004729;28;50204;-71
2023/01/24 08:43:58;;;;;;;;;59.25;47.00;;;;;2.85;100.00;103439.56;4993087;28;49659;-70
2023/01/24 08:46:25;;;;;;;;;42.50;34.50;;;;;2.91;100.00;103460.00;4992522;28;50901;-70
2023/01/24 08:48:50;;;;;;;;;44.75;39.50;;;;;1.90;100.00;103307.75;4992763;28;49908;-65
2023/01/24 08:51:16;;;;;;;;;61.00;49.25;;;;;2.70;100.00;103426.06;5003335;28;49639;-70
2023/01/24 08:53:41;;;;;;;;;56.00;45.50;;;;;1.87;100.00;103269.53;4998362;28;49943;-65
2023/01/24 08:56:06;;;;;;;;;60.25;43.25;;;;;1.51;100.00;103263.38;4992223;28;49893;-66
2023/01/24 08:58:33;;;;;;;;;44.00;31.25;;;;;1.72;100.00;103256.00;4983985;28;49834;-67
2023/01/24 09:00:59;;;;;;;;;58.50;44.00;;;;;2.37;100.00;103379.66;5005203;28;49812;-67
2023/01/24 09:03:24;;;;;;;;;52.00;40.50;;;;;2.01;100.00;103305.41;4994238;28;49834;-67
2023/01/24 09:05:55;;;;;;;;;55.50;42.25;;;;;2.36;100.00;103376.94;4992071;28;51458;-68
2023/01/24 09:08:22;;;;;;;;;50.00;41.75;;;;;2.08;100.00;103326.75;4992307;28;49848;-66
2023/01/24 09:10:47;;;;;;;;;46.00;37.75;;;;;1.69;100.00;103302.31;4991926;28;49844;-64
2023/01/24 09:13:13;;;;;;;;;51.00;42.25;;;;;2.35;100.00;103364.75;4992290;28;49830;-66
2023/01/24 09:15:39;;;;;;;;;58.00;43.75;;;;;1.61;100.00;103282.53;4992049;28;51136;-68
2023/01/24 09:18:04;;;;;;;;;45.00;37.00;;;;;1.28;100.00;103204.22;4992149;28;49802;-64
2023/01/24 09:20:29;;;;;;;;;45.50;32.75;;;;;1.73;100.00;103238.78;4992382;28;49805;-66
2023/01/24 09:22:55;;;;;;;;;38.75;36.50;;;;;2.37;100.00;103364.13;4992086;28;49940;-66
2023/01/24 09:25:20;;;;;;;;;54.00;45.00;;;;;1.80;100.00;103253.25;4991849;28;49896;-66
2023/01/24 09:27:52;;;;;;;;;49.75;44.50;;;;;1.52;100.00;103224.69;4992395;28;49886;-64
2023/01/24 09:30:18;;;;;;;;;51.50;43.25;;;;;3.22;100.00;103494.94;4975068;28;49719;-66
2023/01/24 09:32:43;;;;;;;;;60.50;47.75;;;;;2.01;100.00;103281.19;4992290;28;50024;-67
2023/01/24 09:35:09;;;;;;;;;60.25;49.75;;;;;1.37;100.00;103114.53;4992419;28;50876;-65
2023/01/24 09:37:34;;;;;;;;;53.50;43.25;;;;;2.48;100.00;103352.16;4992036;28;49871;-65
2023/01/24 09:40:00;;;;;;;;;44.50;37.50;;;;;2.96;100.00;103454.44;4991788;28;49779;-70
2023/01/24 09:42:37;;;;;;;;;50.75;45.00;;;;;2.39;100.00;103344.44;4992188;28;49757;-65
2023/01/24 09:45:12;;;;;;;;;56.75;43.75;;;;;3.31;100.00;103473.34;4991913;28;50663;-65
2023/01/24 09:47:40;;;;;;;;;53.50;41.00;;;;;3.28;100.00;103475.66;4991515;28;49727;-65
2023/01/24 09:50:15;;;;;;;;;50.50;43.00;;;;;3.06;100.00;103443.25;4996033;28;50422;-65
2023/01/24 09:52:43;;;;;;;;;64.25;51.00;;;;;2.07;100.00;103249.78;4992371;28;49614;-65
2023/01/24 09:55:18;;;;;;;;;53.25;44.25;;;;;2.54;100.00;103366.63;4997235;28;50412;-65
2023/01/24 09:57:59;;;;;;;;;44.00;36.50;;;;;3.33;100.00;103481.25;5010895;28;49777;-65
2023/01/24 10:00:47;;;;;;;;;49.00;42.75;;;;;2.12;100.00;103315.88;4996558;28;49950;-63
2023/01/24 10:03:21;;;;;;;;;62.25;47.50;;;;;1.89;100.00;103274.84;4991692;28;49893;-64
2023/01/24 10:05:50;;;;;;;;;46.25;43.50;;;;;1.94;100.00;103283.97;4976788;28;50818;-65
2023/01/24 10:08:49;;;;;;;;;59.00;41.00;;;;;3.42;100.00;103487.31;4989466;28;50395;-65
2023/01/24 10:11:40;;;;;;;;;55.50;43.75;;;;;2.08;100.00;103264.56;4991627;28;50003;-65
2023/01/24 10:14:24;;;;;;;;;65.25;46.50;;;;;2.05;100.00;103295.38;5002272;28;50065;-65
2023/01/24 10:17:18;;;;;;;;;59.50;42.75;;;;;3.51;100.00;103497.66;4993965;28;50586;-65
2023/01/24 10:20:06;;;;;;;;;33.75;26.75;;;;;3.55;100.00;103494.56;4991721;28;49745;-68
2023/01/24 10:23:01;;;;;;;;;54.75;44.75;;;;;3.67;100.00;103495.72;4992591;28;49709;-65
2023/01/24 10:25:33;;;;;;;;;53.50;40.50;;;;;2.46;100.00;103323.50;4993998;28;49772;-66
2023/01/24 10:28:01;;;;;;;;;61.75;45.50;;;;;3.77;100.00;103534.75;5008861;28;49921;-64
2023/01/24 10:30:48;;;;;;;;;56.25;43.00;;;;;3.74;100.00;103496.38;4994029;28;49691;-65
2023/01/24 10:33:19;;;;;;;;;51.25;42.00;;;;;2.50;100.00;103242.63;4992007;28;49716;-67
2023/01/24 10:36:08;;;;;;;;;56.75;45.25;;;;;3.34;100.00;103451.94;4997889;28;50000;-64
2023/01/24 10:38:34;;;;;;;;;45.00;38.25;;;;;2.49;100.00;103290.09;4990321;28;50824;-65
2023/01/24 10:41:16;;;;;;;;;61.25;47.50;;;;;3.20;100.00;103367.59;4991025;28;50006;-65
2023/01/24 10:43:45;;;;;;;;;50.75;43.25;;;;;3.51;100.00;103419.72;4990984;28;49599;-65
2023/01/24 10:46:10;;;;;;;;;58.75;45.00;;;;;3.92;100.00;103483.25;4991305;28;50055;-70
2023/01/24 10:48:48;;;;;;;;;60.00;43.50;;;;;3.07;100.00;103336.06;4990702;28;49856;-66
2023/01/24 10:51:23;;;;;;;;;55.25;45.00;;;;;2.66;100.00;103236.28;4975099;28;49664;-65
2023/01/24 10:53:49;;;;;;;;;57.25;43.50;;;;;2.76;100.00;103254.50;4994088;28;49910;-65
2023/01/24 10:56:18;;;;;;;;;47.75;43.50;;;;;2.15;100.00;103199.59;4996860;28;49905;-65
2023/01/24 10:59:07;;;;;;;;;52.50;43.50;;;;;3.40;100.00;103359.03;4996401;28;50035;-72
2023/01/24 11:01:49;;;;;;;;;57.00;48.25;;;;;4.05;100.00;103457.59;5005812;28;49702;-77
2023/01/24 11:04:23;;;;;;;;;58.50;48.00;;;;;3.88;100.00;103424.91;5010380;28;49737;-75
2023/01/24 11:06:50;;;;;;;;;64.25;48.75;;;;;4.05;100.00;103461.88;5010743;28;49670;-72
2023/01/24 11:09:29;;;;;;;;;50.00;42.25;;;;;2.88;100.00;103253.03;5009403;28;50884;-72
2023/01/24 11:11:57;;;;;;;;;58.50;44.50;;;;;3.39;100.00;103352.94;5009957;28;49516;-74
2023/01/24 11:14:28;;;;;;;;;51.00;44.00;;;;;4.12;100.00;103452.16;5003320;28;49864;-76
2023/01/24 11:16:56;;;;;;;;;43.00;35.25;;;;;4.09;100.00;103448.41;4986527;28;49902;-75
2023/01/24 11:19:33;;;;;;;;;53.00;44.50;;;;;2.82;100.00;103263.78;4990712;28;50659;-74
2023/01/24 11:22:01;;;;;;;;;54.25;44.75;;;;;2.78;100.00;103247.78;4990795;28;49885;-74
2023/01/24 11:24:28;;;;;;;;;35.25;28.00;;;;;2.50;100.00;103153.56;4972882;28;49712;-74
2023/01/24 11:27:00;;;;;;;;;50.75;40.25;;;;;3.25;100.00;103277.13;4991430;28;50059;-76
2023/01/24 11:29:26;;;;;;;;;48.50;43.00;;;;;3.79;100.00;103376.38;4995565;28;51056;-75
2023/01/24 11:31:54;;;;;;;;;62.25;50.25;;;;;2.72;100.00;103159.06;5007814;28;49727;-74
2023/01/24 11:34:56;;;;;;;;;48.75;42.00;;;;;4.28;100.00;103431.97;5009400;28;49666;-74
2023/01/24 11:37:25;;;;;;;;;45.75;40.25;;;;;4.22;100.00;103431.41;5010369;28;49806;-73
2023/01/24 11:40:23;;;;;;;;;41.00;35.75;;;;;4.16;100.00;103432.59;5012336;28;50957;-72
2023/01/24 11:43:08;;;;;;;;;48.25;36.25;;;;;4.13;100.00;103422.78;4997695;28;49688;-74
2023/01/24 11:45:45;;;;;;;;;43.00;38.75;;;;;4.17;100.00;103419.72;4992196;28;49892;-72
2023/01/24 11:48:21;;;;;;;;;33.75;26.25;;;;;2.84;100.00;103180.91;4992546;28;49877;-75
2023/01/24 11:50:53;;;;;;;;;51.00;40.25;;;;;4.20;100.00;103425.16;5000574;28;49868;-74
2023/01/24 11:53:33;;;;;;;;;41.25;41.00;;;;;4.00;100.00;103394.81;5009076;28;49823;-82
2023/01/24 11:56:20;;;;;;;;;44.75;32.50;;;;;3.21;100.00;103236.13;5008780;28;49680;-77
2023/01/24 11:58:48;;;;;;;;;41.75;39.25;;;;;4.25;100.00;103412.59;4997239;28;50035;-70
2023/01/24 12:01:35;;;;;;;;;41.50;37.00;;;;;4.36;100.00;103416.13;5009137;28;51167;-66
2023/01/24 12:04:22;;;;;;;;;37.25;34.75;;;;;4.44;100.00;103413.44;4990343;28;50030;-66
2023/01/24 12:07:15;;;;;;;;;45.00;37.50;;;;;4.51;100.00;103413.19;4990100;28;49775;-72
2023/01/24 12:09:51;;;;;;;;;55.75;42.00;;;;;3.76;100.00;103262.69;4989737;28;49873;-67
2023/01/24 12:12:29;;;;;;;;;35.00;27.25;;;;;4.57;100.00;103400.72;4990043;28;50989;-68
2023/01/24 12:15:23;;;;;;;;;52.00;41.50;;;;;4.60;100.00;103395.75;5000173;28;49680;-67
2023/01/24 12:18:01;;;;;;;;;38.75;28.75;;;;;4.67;100.00;103393.72;5009002;28;49757;-72
2023/01/24 12:20:44;;;;;;;;;36.75;33.50;;;;;4.67;100.00;103394.63;5009113;28;49870;-72
2023/01/24 12:23:21;;;;;;;;;48.25;41.75;;;;;3.53;100.00;103213.91;5008566;28;49806;-71
2023/01/24 12:25:50;;;;;;;;;42.50;35.25;;;;;4.48;100.00;103378.19;5010155;28;49845;-71
2023/01/24 12:28:36;;;;;;;;;45.50;39.00;;;;;4.16;100.00;103292.19;5012311;28;49850;-71
2023/01/24 12:31:04;;;;;;;;;33.00;29.25;;;;;3.86;100.00;103267.00;5012473;28;49915;-71
2023/01/24 12:33:50;;;;;;;;;33.00;28.75;;;;;3.99;100.00;103277.72;5012107;28;50694;-71
2023/01/24 12:36:29;;;;;;;;;42.00;35.50;;;;;4.60;100.00;103387.97;5012282;28;49732;-71
2023/01/24 12:39:00;;;;;;;;;35.00;31.00;;;;;3.34;100.00;103174.13;4994544;28;50017;-71
2023/01/24 12:41:37;;;;;;;;;38.00;30.25;;;;;4.35;100.00;103363.22;5012318;28;49972;-71
2023/01/24 12:44:53;;;;;;;;;43.75;36.75;;;;;4.72;100.00;103377.69;5011850;28;49837;-71
2023/01/24 12:47:27;;;;;;;;;44.50;40.50;;;;;3.45;100.00;103195.06;4975764;28;49959;-70
2023/01/24 12:50:15;;;;;;;;;44.00;38.50;;;;;4.77;100.00;103376.41;4993095;28;49987;-70
2023/01/24 12:52:49;;;;;;;;;46.75;42.50;;;;;4.82;100.00;103368.97;4993220;28;49635;-69
2023/01/24 12:55:26;;;;;;;;;45.25;43.00;;;;;4.76;100.00;103358.06;4992214;28;49858;-71
2023/01/24 12:58:00;;;;;;;;;44.75;34.00;;;;;3.58;100.00;103144.22;4992903;28;49824;-71
2023/01/24 13:00:29;;;;;;;;;42.25;37.00;;;;;4.29;100.00;103301.16;4987831;28;49746;-71
2023/01/24 13:03:13;;;;;;;;;59.25;47.00;;;;;4.84;100.00;103368.34;4992804;28;50110;-71
2023/01/24 13:05:54;;;;;;;;;39.50;35.75;;;;;3.85;100.00;103241.78;4989755;28;51687;-70
2023/01/24 13:08:29;;;;;;;;;50.75;43.75;;;;;4.27;100.00;103270.63;5011814;28;49882;-70
2023/01/24 13:11:16;;;;;;;;;34.50;33.00;;;;;4.59;100.00;103325.41;5000233;28;49827;-70
2023/01/24 13:13:49;;;;;;;;;54.25;41.25;;;;;3.78;100.00;103172.81;4992820;28;49858;-70
2023/01/24 13:16:52;;;;;;;;;55.50;43.75;;;;;4.92;100.00;103365.47;4992489;28;49884;-71
2023/01/24 13:19:41;;;;;;;;;49.75;42.25;;;;;4.97;100.00;103366.78;4992411;28;49829;-71
2023/01/24 13:22:26;;;;;;;;;52.75;36.50;;;;;5.00;100.00;103360.13;4992380;28;50139;-70
2023/01/24 13:25:10;;;;;;;;;49.75;38.50;;;;;4.99;100.00;103360.91;4992028;28;49824;-71
2023/01/24 13:27:51;;;;;;;;;55.25;40.75;;;;;3.45;100.00;103153.50;4991966;28;49844;-71
2023/01/24 13:30:23;;;;;;;;;44.75;40.50;;;;;4.05;100.00;103226.25;4992602;28;50203;-71
2023/01/24 13:32:50;;;;;;;;;57.50;41.50;;;;;3.72;100.00;103159.28;4992917;28;49817;-73
2023/01/24 13:35:20;;;;;;;;;47.50;39.25;;;;;4.43;100.00;103315.34;4992671;28;50111;-67
2023/01/24 13:38:14;;;;;;;;;46.75;38.75;;;;;4.81;100.00;103369.75;4991667;28;50389;-72
2023/01/24 13:40:39;;;;;;;;;51.00;41.50;;;;;3.90;100.00;103228.44;4991777;28;49853;-71
2023/01/24 13:43:36;;;;;;;;;51.00;43.25;;;;;4.78;100.00;103341.78;4992105;28;49930;-71
2023/01/24 13:46:02;;;;;;;;;42.25;35.00;;;;;3.38;100.00;103127.81;4992118;28;50096;-71
2023/01/24 13:48:40;;;;;;;;;45.75;39.75;;;;;4.80;100.00;103361.03;4991802;28;50816;-72
2023/01/24 13:51:20;;;;;;;;;59.50;44.75;;;;;4.81;100.00;103356.75;4992034;28;49854;-72
2023/01/24 13:54:15;;;;;;;;;46.00;37.25;;;;;4.72;100.00;103369.88;4991891;28;49877;-72
2023/01/24 13:57:03;;;;;;;;;43.50;38.50;;;;;4.73;100.00;103361.34;4991982;28;49972;-72
2023/01/24 13:59:29;;;;;;;;;38.50;35.00;;;;;4.03;100.00;103285.00;4991721;28;50385;-72
2023/01/24 14:01:55;;;;;;;;;47.75;42.00;;;;;4.01;100.00;103291.75;4991848;28;49734;-72
2023/01/24 14:04:40;;;;;;;;;41.00;34.50;;;;;4.26;100.00;103294.81;4991895;28;49768;-73
2023/01/24 14:07:39;;;;;;;;;41.75;37.25;;;;;4.73;100.00;103384.75;4991933;28;50216;-72
2023/01/24 14:10:08;;;;;;;;;51.50;39.75;;;;;4.79;100.00;103371.34;4966761;28;50196;-73
2023/01/24 14:12:38;;;;;;;;;46.50;41.00;;;;;4.83;100.00;103361.34;4991695;28;49792;-73
2023/01/24 14:15:12;;;;;;;;;59.75;45.00;;;;;3.40;100.00;103136.63;4991762;28;49867;-72
2023/01/24 14:17:40;;;;;;;;;38.50;32.25;;;;;4.74;100.00;103362.25;4991730;28;49721;-72
2023/01/24 14:20:44;;;;;;;;;47.00;40.75;;;;;4.77;100.00;103366.00;4991407;28;49866;-72
2023/01/24 14:23:21;;;;;;;;;50.00;39.50;;;;;3.99;100.00;103247.44;4991398;28;50333;-72
2023/01/24 14:25:53;;;;;;;;;49.25;36.25;;;;;3.65;100.00;103141.34;4991309;28;49838;-72
2023/01/24 14:28:22;;;;;;;;;43.50;38.00;;;;;4.75;100.00;103371.88;4991673;28;49793;-72
2023/01/24 14:30:56;;;;;;;;;49.75;39.00;;;;;3.64;100.00;103191.47;4991157;28;49796;-72
2023/01/24 14:33:45;;;;;;;;;49.00;37.25;;;;;3.42;100.00;103175.72;4991358;28;49794;-71
2023/01/24 14:36:38;;;;;;;;;47.50;40.25;;;;;3.54;100.00;103157.69;4991367;28;49953;-72
2023/01/24 14:39:30;;;;;;;;;49.00;40.75;;;;;4.45;100.00;103363.25;4989502;28;49769;-72
2023/01/24 14:42:11;;;;;;;;;36.75;34.25;;;;;4.49;100.00;103365.31;4988806;28;49959;-72
2023/01/24 14:44:39;;;;;;;;;43.75;37.00;;;;;2.94;100.00;103148.91;4989557;28;49615;-72
2023/01/24 14:47:16;;;;;;;;;47.75;41.75;;;;;4.21;100.00;103342.88;4991107;28;49802;-72
2023/01/24 14:49:52;;;;;;;;;42.00;34.00;;;;;2.77;100.00;103116.25;4990780;28;49814;-72
2023/01/24 14:52:23;;;;;;;;;50.25;37.00;;;;;3.42;100.00;103186.09;4973016;28;52183;-71
2023/01/24 14:54:57;;;;;;;;;53.75;44.50;;;;;3.45;100.00;103234.00;4990595;28;50011;-72
2023/01/24 14:57:31;;;;;;;;;48.25;35.00;;;;;4.41;100.00;103371.53;4991181;28;50044;-71
2023/01/24 15:00:11;;;;;;;;;49.25;40.25;;;;;4.37;100.00;103364.25;4991252;28;49655;-72
2023/01/24 15:02:39;;;;;;;;;51.50;40.50;;;;;4.36;100.00;103391.03;4990868;28;50601;-72
2023/01/24 15:05:35;;;;;;;;;55.25;42.00;;;;;3.53;100.00;103218.19;5001579;28;49818;-73
2023/01/24 15:08:05;;;;;;;;;55.25;45.00;;;;;3.99;100.00;103303.72;4993427;28;49841;-72
2023/01/24 15:10:35;;;;;;;;;51.75;43.50;;;;;3.17;100.00;103150.16;5009449;28;49816;-72
2023/01/24 15:13:02;;;;;;;;;49.50;41.75;;;;;3.36;100.00;103222.81;5009659;28;49776;-72
2023/01/24 15:15:29;;;;;;;;;51.50;41.50;;;;;3.74;100.00;103265.16;5009893;28;49914;-71
2023/01/24 15:18:01;;;;;;;;;44.00;39.75;;;;;3.41;100.00;103238.81;5009694;28;49789;-71
2023/01/24 15:20:27;;;;;;;;;44.00;39.25;;;;;4.13;100.00;103325.69;5010007;28;49718;-72
2023/01/24 15:22:55;;;;;;;;;39.00;33.50;;;;;3.12;100.00;103179.09;4991717;28;51712;-72
2023/01/24 15:25:25;;;;;;;;;46.00;38.50;;;;;4.05;100.00;103370.91;5009057;28;49616;-72
2023/01/24 15:27:50;;;;;;;;;55.00;44.25;;;;;3.69;100.00;103296.72;5009510;28;50361;-72
2023/01/24 15:30:21;;;;;;;;;45.00;36.50;;;;;3.03;100.00;103176.59;4992016;28;49952;-71
2023/01/24 15:32:49;;;;;;;;;38.25;33.50;;;;;4.29;100.00;103388.69;5009391;28;50779;-72
2023/01/24 15:35:22;;;;;;;;;44.50;38.25;;;;;4.26;100.00;103394.53;5009526;28;49751;-72
2023/01/24 15:38:10;;;;;;;;;42.50;32.50;;;;;3.09;100.00;103233.34;5009812;28;49792;-72
2023/01/24 15:41:04;;;;;;;;;40.50;35.50;;;;;3.54;100.00;103314.44;5009177;28;50057;-72
2023/01/24 15:43:48;;;;;;;;;58.50;43.75;;;;;3.20;100.00;103208.34;4977702;28;50803;-72
2023/01/24 15:49:26;;;;;;;;;44.50;35.75;;;;;3.03;100.00;103201.63;5009267;28;49826;-72
2023/01/24 15:52:07;;;;;;;;;53.75;43.25;;;;;2.89;100.00;103182.22;5009362;28;50137;-71
2023/01/24 15:54:37;;;;;;;;;56.25;45.00;;;;;2.96;100.00;103214.81;5008662;28;49843;-72
2023/01/24 15:57:11;;;;;;;;;45.25;38.75;;;;;4.18;100.00;103415.41;4991871;28;49761;-69
2023/01/24 15:59:40;;;;;;;;;63.00;47.00;;;;;3.46;100.00;103266.06;5007147;28;49767;-65
2023/01/24 16:02:11;;;;;;;;;42.50;32.50;;;;;2.77;100.00;103160.34;4980231;28;49693;-65
2023/01/24 16:04:37;;;;;;;;;46.00;43.00;;;;;3.94;100.00;103363.06;4993308;28;50876;-66
2023/01/24 16:07:02;;;;;;;;;60.50;45.75;;;;;3.30;100.00;103232.66;5004549;28;49878;-66
2023/01/24 16:09:27;;;;;;;;;45.75;31.25;;;;;2.96;100.00;103207.03;5000159;28;49844;-67
2023/01/24 16:11:53;;;;;;;;;59.75;43.75;;;;;2.82;100.00;103187.66;5004747;28;50004;-65
2023/01/24 16:14:22;;;;;;;;;58.25;43.75;;;;;2.79;100.00;103214.19;5018083;28;49515;-66
2023/01/24 16:16:50;;;;;;;;;41.25;39.25;;;;;2.95;100.00;103213.00;5015866;28;49435;-68
2023/01/24 16:19:17;;;;;;;;;58.50;42.50;;;;;3.49;100.00;103314.81;5019135;28;49513;-68
2023/01/24 16:21:46;;;;;;;;;48.25;38.50;;;;;3.16;100.00;103240.88;5012739;28;49564;-69
2023/01/24 16:24:12;;;;;;;;;54.50;45.00;;;;;3.58;100.00;103271.47;4995680;28;52004;-68
2023/01/24 16:26:43;;;;;;;;;42.50;37.50;;;;;3.23;100.00;103219.91;5017201;28;49143;-69
2023/01/24 16:29:17;;;;;;;;;47.75;36.50;;;;;4.26;100.00;103406.63;5010995;28;49284;-68
2023/01/24 16:31:44;;;;;;;;;35.25;33.75;;;;;3.47;100.00;103288.66;5013868;28;49515;-68
2023/01/24 16:34:09;;;;;;;;;52.00;39.50;;;;;2.22;100.00;103077.56;5008975;28;50439;-68
2023/01/24 16:36:35;;;;;;;;;40.50;36.00;;;;;3.26;100.00;103240.03;5019387;28;49635;-69
2023/01/24 16:39:01;;;;;;;;;45.25;38.75;;;;;2.99;100.00;103216.03;5022842;28;49397;-68
2023/01/24 16:41:26;;;;;;;;;42.25;35.50;;;;;3.26;100.00;103247.81;5011419;28;49158;-68
2023/01/24 16:43:51;;;;;;;;;39.25;33.00;;;;;3.26;100.00;103222.75;5017216;28;50189;-68
2023/01/24 16:46:19;;;;;;;;;45.00;34.25;;;;;4.00;100.00;103370.50;5011448;28;50027;-69
2023/01/24 16:48:45;;;;;;;;;37.25;34.50;;;;;4.16;100.00;103403.97;5010617;28;49638;-69
2023/01/24 16:51:13;;;;;;;;;23.00;22.25;;;;;4.26;100.00;103432.63;5010910;28;49391;-69
2023/01/24 16:53:38;;;;;;;;;35.00;31.00;;;;;4.13;100.00;103403.69;5015833;28;49683;-69
2023/01/24 16:56:04;;;;;;;;;40.25;36.75;;;;;4.01;100.00;103385.31;5024830;28;49600;-69
2023/01/24 16:58:29;;;;;;;;;42.25;37.25;;;;;3.90;100.00;103370.47;5008252;28;49343;-71
2023/01/24 17:00:55;;;;;;;;;13.75;12.50;;;;;3.83;100.00;103373.28;5013715;28;49462;-73
2023/01/24 17:03:20;;;;;;;;;45.00;33.00;;;;;4.11;100.00;103420.84;4992694;28;51903;-68
2023/01/24 17:05:46;;;;;;;;;45.00;36.75;;;;;3.94;100.00;103394.25;5021708;28;49228;-68
2023/01/24 17:08:12;;;;;;;;;49.00;41.25;;;;;4.17;100.00;103419.72;5007028;28;49761;-69
2023/01/24 17:10:39;;;;;;;;;44.00;40.75;;;;;4.09;100.00;103404.19;5008675;28;49466;-68
2023/01/24 17:13:05;;;;;;;;;49.25;40.00;;;;;4.30;100.00;103445.09;5006154;28;49702;-68
2023/01/24 17:15:33;;;;;;;;;24.75;20.25;;;;;4.15;100.00;103422.94;5007517;28;49560;-61
2023/01/24 17:17:58;;;;;;;;;34.50;32.50;;;;;4.15;100.00;103430.72;5002555;28;49756;-71
2023/01/24 17:20:23;;;;;;;;;42.75;32.50;;;;;4.14;100.00;103419.41;4993930;28;50012;-65
2023/01/24 17:22:49;;;;;;;;;46.50;36.25;;;;;4.20;100.00;103430.38;4999588;28;56359;-67
2023/01/24 17:25:14;;;;;;;;;36.00;32.75;;;;;3.90;100.00;103370.47;4993565;28;50532;-70
2023/01/24 17:27:39;;;;;;;;;44.25;37.25;;;;;4.12;100.00;103425.25;4992677;28;49874;-66
2023/01/24 17:30:05;;;;;;;;;48.00;40.00;;;;;4.22;100.00;103447.00;4991526;28;50072;-70